sensor_id;sensor_type;location;lat;lon;timestamp;temperature;humidity
17172;DHT22;8701;50.150;8.756;2023-10-08T00:01:04;17.30;99.90
17172;DHT22;8701;50.150;8.756;2023-10-08T00:05:07;17.30;99.90
17172;DHT22;8701;50.150;8.756;2023-10-08T00:09:10;17.20;99.90
17172;DHT22;8701;50.150;8.756;2023-10-08T00:13:14;17.20;99.90
17172;DHT22;8701;50.150;8.756;2023-10-08T00:17:18;17.20;99.90
17172;DHT22;8701;50.150;8.756;2023-10-08T00:21:22;17.20;99.90
17172;DHT22;8701;50.150;8.756;2023-10-08T00:25:27;17.20;99.90
17172;DHT22;8701;50.150;8.756;2023-10-08T00:29:32;17.20;99.90
17172;DHT22;8701;50.150;8.756;2023-10-08T00:33:36;17.20;99.90
17172;DHT22;8701;50.150;8.756;2023-10-08T00:37:38;17.10;99.90
17172;DHT22;8701;50.150;8.756;2023-10-08T00:41:41;17.10;99.90
17172;DHT22;8701;50.150;8.756;2023-10-08T00:45:44;17.10;99.90
17172;DHT22;8701;50.150;8.756;2023-10-08T00:49:52;17.10;99.90
17172;DHT22;8701;50.150;8.756;2023-10-08T00:54:05;17.10;99.90
17172;DHT22;8701;50.150;8.756;2023-10-08T00:58:09;17.10;99.90
17172;DHT22;8701;50.150;8.756;2023-10-08T01:02:15;17.10;99.90
17172;DHT22;8701;50.150;8.756;2023-10-08T01:06:22;17.10;99.90
17172;DHT22;8701;50.150;8.756;2023-10-08T01:10:30;17.10;99.90
17172;DHT22;8701;50.150;8.756;2023-10-08T01:14:33;17.10;99.90
17172;DHT22;8701;50.150;8.756;2023-10-08T01:18:36;17.00;99.90
17172;DHT22;8701;50.150;8.756;2023-10-08T01:22:45;17.00;99.90
17172;DHT22;8701;50.150;8.756;2023-10-08T01:26:47;16.90;99.90
17172;DHT22;8701;50.150;8.756;2023-10-08T01:30:49;16.90;99.90
17172;DHT22;8701;50.150;8.756;2023-10-08T01:34:54;16.90;99.90
17172;DHT22;8701;50.150;8.756;2023-10-08T01:38:59;16.90;99.90
17172;DHT22;8701;50.150;8.756;2023-10-08T01:43:03;16.90;99.90
17172;DHT22;8701;50.150;8.756;2023-10-08T01:47:06;16.90;99.90
17172;DHT22;8701;50.150;8.756;2023-10-08T01:51:09;16.90;99.90
17172;DHT22;8701;50.150;8.756;2023-10-08T01:55:14;16.90;99.90
17172;DHT22;8701;50.150;8.756;2023-10-08T01:59:19;16.90;99.90
17172;DHT22;8701;50.150;8.756;2023-10-08T02:03:22;16.80;99.90
17172;DHT22;8701;50.150;8.756;2023-10-08T02:07:24;16.90;99.90
17172;DHT22;8701;50.150;8.756;2023-10-08T02:11:27;16.80;99.90
17172;DHT22;8701;50.150;8.756;2023-10-08T02:15:29;16.80;99.90
17172;DHT22;8701;50.150;8.756;2023-10-08T02:19:31;16.80;99.90
17172;DHT22;8701;50.150;8.756;2023-10-08T02:23:35;16.80;99.90
17172;DHT22;8701;50.150;8.756;2023-10-08T02:27:39;16.80;99.90
17172;DHT22;8701;50.150;8.756;2023-10-08T02:31:42;16.80;99.90
17172;DHT22;8701;50.150;8.756;2023-10-08T02:35:46;16.80;99.90
17172;DHT22;8701;50.150;8.756;2023-10-08T02:39:48;16.80;99.90
17172;DHT22;8701;50.150;8.756;2023-10-08T02:43:52;16.80;99.90
17172;DHT22;8701;50.150;8.756;2023-10-08T02:47:55;16.70;99.90
17172;DHT22;8701;50.150;8.756;2023-10-08T02:51:57;16.70;99.90
17172;DHT22;8701;50.150;8.756;2023-10-08T02:55:59;16.60;99.90
17172;DHT22;8701;50.150;8.756;2023-10-08T03:00:05;16.60;99.90
17172;DHT22;8701;50.150;8.756;2023-10-08T03:04:13;16.60;99.90
17172;DHT22;8701;50.150;8.756;2023-10-08T03:08:19;16.60;99.90
17172;DHT22;8701;50.150;8.756;2023-10-08T03:12:22;16.60;99.90
17172;DHT22;8701;50.150;8.756;2023-10-08T03:16:27;16.60;99.90
17172;DHT22;8701;50.150;8.756;2023-10-08T03:20:35;16.60;99.90
17172;DHT22;8701;50.150;8.756;2023-10-08T03:24:43;16.60;99.90
17172;DHT22;8701;50.150;8.756;2023-10-08T03:28:49;16.60;99.90
17172;DHT22;8701;50.150;8.756;2023-10-08T03:33:00;16.50;99.90
17172;DHT22;8701;50.150;8.756;2023-10-08T03:37:05;16.50;99.90
17172;DHT22;8701;50.150;8.756;2023-10-08T03:41:07;16.40;99.90
17172;DHT22;8701;50.150;8.756;2023-10-08T03:45:16;16.40;99.90
17172;DHT22;8701;50.150;8.756;2023-10-08T03:49:25;16.30;99.90
17172;DHT22;8701;50.150;8.756;2023-10-08T03:53:28;16.30;99.90
17172;DHT22;8701;50.150;8.756;2023-10-08T03:57:34;16.30;99.90
17172;DHT22;8701;50.150;8.756;2023-10-08T04:01:43;16.30;99.90
17172;DHT22;8701;50.150;8.756;2023-10-08T04:05:47;16.20;99.90
17172;DHT22;8701;50.150;8.756;2023-10-08T04:10:05;16.20;99.90
17172;DHT22;8701;50.150;8.756;2023-10-08T04:14:35;16.30;99.90
17172;DHT22;8701;50.150;8.756;2023-10-08T04:18:37;16.30;99.90
17172;DHT22;8701;50.150;8.756;2023-10-08T04:22:42;16.30;99.90
17172;DHT22;8701;50.150;8.756;2023-10-08T04:26:44;16.20;99.90
17172;DHT22;8701;50.150;8.756;2023-10-08T04:30:47;16.30;99.90
17172;DHT22;8701;50.150;8.756;2023-10-08T04:34:51;16.20;99.90
17172;DHT22;8701;50.150;8.756;2023-10-08T04:38:58;16.30;99.90
17172;DHT22;8701;50.150;8.756;2023-10-08T04:43:06;16.20;99.90
17172;DHT22;8701;50.150;8.756;2023-10-08T04:47:11;16.20;99.90
17172;DHT22;8701;50.150;8.756;2023-10-08T04:51:33;16.00;99.90
17172;DHT22;8701;50.150;8.756;2023-10-08T04:55:45;16.00;99.90
17172;DHT22;8701;50.150;8.756;2023-10-08T04:59:49;16.00;99.90
17172;DHT22;8701;50.150;8.756;2023-10-08T05:03:53;15.90;99.90
17172;DHT22;8701;50.150;8.756;2023-10-08T05:08:24;15.90;99.90
17172;DHT22;8701;50.150;8.756;2023-10-08T05:12:49;16.00;99.90
17172;DHT22;8701;50.150;8.756;2023-10-08T05:17:04;15.80;99.90
17172;DHT22;8701;50.150;8.756;2023-10-08T05:21:10;16.00;99.90
17172;DHT22;8701;50.150;8.756;2023-10-08T05:25:26;15.90;99.90
17172;DHT22;8701;50.150;8.756;2023-10-08T05:29:42;15.90;99.90
17172;DHT22;8701;50.150;8.756;2023-10-08T05:34:10;16.00;99.90
17172;DHT22;8701;50.150;8.756;2023-10-08T05:38:34;16.00;99.90
17172;DHT22;8701;50.150;8.756;2023-10-08T05:43:01;15.90;99.90
17172;DHT22;8701;50.150;8.756;2023-10-08T05:47:16;15.90;99.90
17172;DHT22;8701;50.150;8.756;2023-10-08T05:51:36;15.90;99.90
17172;DHT22;8701;50.150;8.756;2023-10-08T05:55:47;15.90;99.90
17172;DHT22;8701;50.150;8.756;2023-10-08T06:00:02;15.90;99.90
17172;DHT22;8701;50.150;8.756;2023-10-08T06:04:30;15.90;99.90
17172;DHT22;8701;50.150;8.756;2023-10-08T06:08:54;15.90;99.90
17172;DHT22;8701;50.150;8.756;2023-10-08T06:13:21;15.90;99.90
17172;DHT22;8701;50.150;8.756;2023-10-08T06:17:31;15.90;99.90
17172;DHT22;8701;50.150;8.756;2023-10-08T06:21:57;16.00;99.90
17172;DHT22;8701;50.150;8.756;2023-10-08T06:25:59;16.10;99.90
17172;DHT22;8701;50.150;8.756;2023-10-08T06:30:07;16.20;99.90
17172;DHT22;8701;50.150;8.756;2023-10-08T06:34:17;16.20;99.90
17172;DHT22;8701;50.150;8.756;2023-10-08T06:38:23;16.20;99.90
17172;DHT22;8701;50.150;8.756;2023-10-08T06:42:27;16.20;99.90
17172;DHT22;8701;50.150;8.756;2023-10-08T06:46:30;16.20;99.90
17172;DHT22;8701;50.150;8.756;2023-10-08T06:50:33;16.20;99.90
17172;DHT22;8701;50.150;8.756;2023-10-08T06:54:38;16.20;99.90
17172;DHT22;8701;50.150;8.756;2023-10-08T06:58:40;16.20;99.90
17172;DHT22;8701;50.150;8.756;2023-10-08T07:02:46;16.30;99.90
17172;DHT22;8701;50.150;8.756;2023-10-08T07:06:49;16.30;99.90
17172;DHT22;8701;50.150;8.756;2023-10-08T07:10:53;16.40;99.90
17172;DHT22;8701;50.150;8.756;2023-10-08T07:14:58;16.50;99.90
17172;DHT22;8701;50.150;8.756;2023-10-08T07:19:02;16.60;99.90
17172;DHT22;8701;50.150;8.756;2023-10-08T07:23:16;16.70;99.90
17172;DHT22;8701;50.150;8.756;2023-10-08T07:27:22;16.80;99.90
17172;DHT22;8701;50.150;8.756;2023-10-08T07:31:31;16.80;99.90
17172;DHT22;8701;50.150;8.756;2023-10-08T07:35:37;16.80;99.90
17172;DHT22;8701;50.150;8.756;2023-10-08T07:39:41;16.80;99.90
17172;DHT22;8701;50.150;8.756;2023-10-08T07:43:49;16.90;99.90
17172;DHT22;8701;50.150;8.756;2023-10-08T07:47:56;17.00;99.90
17172;DHT22;8701;50.150;8.756;2023-10-08T07:51:59;17.00;99.90
17172;DHT22;8701;50.150;8.756;2023-10-08T07:56:01;17.10;99.90
17172;DHT22;8701;50.150;8.756;2023-10-08T08:00:10;17.10;99.90
17172;DHT22;8701;50.150;8.756;2023-10-08T08:04:20;17.00;99.90
17172;DHT22;8701;50.150;8.756;2023-10-08T08:08:23;17.10;99.90
17172;DHT22;8701;50.150;8.756;2023-10-08T08:12:28;17.20;99.90
17172;DHT22;8701;50.150;8.756;2023-10-08T08:16:34;17.10;99.90
17172;DHT22;8701;50.150;8.756;2023-10-08T08:20:38;17.20;99.90
17172;DHT22;8701;50.150;8.756;2023-10-08T08:24:44;17.20;99.90
17172;DHT22;8701;50.150;8.756;2023-10-08T08:28:47;17.20;99.90
17172;DHT22;8701;50.150;8.756;2023-10-08T08:32:51;17.20;99.90
17172;DHT22;8701;50.150;8.756;2023-10-08T08:36:55;17.30;99.90
17172;DHT22;8701;50.150;8.756;2023-10-08T08:41:02;17.30;99.90
17172;DHT22;8701;50.150;8.756;2023-10-08T08:45:10;17.40;99.90
17172;DHT22;8701;50.150;8.756;2023-10-08T08:49:15;17.50;99.90
17172;DHT22;8701;50.150;8.756;2023-10-08T08:53:19;17.70;99.90
17172;DHT22;8701;50.150;8.756;2023-10-08T08:57:23;17.90;99.90
17172;DHT22;8701;50.150;8.756;2023-10-08T09:01:25;18.80;99.90
17172;DHT22;8701;50.150;8.756;2023-10-08T09:05:29;19.60;99.90
17172;DHT22;8701;50.150;8.756;2023-10-08T09:09:35;20.10;99.90
17172;DHT22;8701;50.150;8.756;2023-10-08T09:13:40;19.90;99.90
17172;DHT22;8701;50.150;8.756;2023-10-08T09:17:42;19.80;99.90
17172;DHT22;8701;50.150;8.756;2023-10-08T09:22:00;19.90;99.90
17172;DHT22;8701;50.150;8.756;2023-10-08T09:26:04;20.10;99.90
17172;DHT22;8701;50.150;8.756;2023-10-08T09:30:10;20.20;99.90
17172;DHT22;8701;50.150;8.756;2023-10-08T09:34:19;20.50;99.90
17172;DHT22;8701;50.150;8.756;2023-10-08T09:38:22;20.50;99.90
17172;DHT22;8701;50.150;8.756;2023-10-08T09:42:25;20.80;99.90
17172;DHT22;8701;50.150;8.756;2023-10-08T09:46:31;20.90;99.90
17172;DHT22;8701;50.150;8.756;2023-10-08T09:50:40;21.10;99.90
17172;DHT22;8701;50.150;8.756;2023-10-08T09:54:48;21.30;99.90
17172;DHT22;8701;50.150;8.756;2023-10-08T09:58:51;21.60;99.90
17172;DHT22;8701;50.150;8.756;2023-10-08T10:02:54;22.00;99.90
17172;DHT22;8701;50.150;8.756;2023-10-08T10:06:57;21.70;99.90
17172;DHT22;8701;50.150;8.756;2023-10-08T10:11:01;21.30;99.90
17172;DHT22;8701;50.150;8.756;2023-10-08T10:15:06;21.30;99.90
17172;DHT22;8701;50.150;8.756;2023-10-08T10:19:16;21.90;99.90
17172;DHT22;8701;50.150;8.756;2023-10-08T10:23:41;22.20;99.90
17172;DHT22;8701;50.150;8.756;2023-10-08T10:32:23;22.70;99.90
17172;DHT22;8701;50.150;8.756;2023-10-08T10:36:26;23.50;99.90
17172;DHT22;8701;50.150;8.756;2023-10-08T10:40:32;24.30;99.90
17172;DHT22;8701;50.150;8.756;2023-10-08T10:44:41;25.00;99.90
17172;DHT22;8701;50.150;8.756;2023-10-08T10:48:44;25.60;99.90
17172;DHT22;8701;50.150;8.756;2023-10-08T10:52:58;26.10;99.90
17172;DHT22;8701;50.150;8.756;2023-10-08T10:57:10;26.60;99.90
17172;DHT22;8701;50.150;8.756;2023-10-08T11:01:21;27.20;99.90
17172;DHT22;8701;50.150;8.756;2023-10-08T11:05:26;28.00;99.90
17172;DHT22;8701;50.150;8.756;2023-10-08T11:09:30;28.50;99.90
17172;DHT22;8701;50.150;8.756;2023-10-08T11:13:40;28.20;99.90
17172;DHT22;8701;50.150;8.756;2023-10-08T11:17:44;27.00;99.90
17172;DHT22;8701;50.150;8.756;2023-10-08T11:21:50;26.00;99.90
17172;DHT22;8701;50.150;8.756;2023-10-08T11:25:52;25.30;99.90
17172;DHT22;8701;50.150;8.756;2023-10-08T11:29:56;25.00;99.90
17172;DHT22;8701;50.150;8.756;2023-10-08T11:34:03;25.20;99.90
17172;DHT22;8701;50.150;8.756;2023-10-08T11:38:13;25.40;99.90
17172;DHT22;8701;50.150;8.756;2023-10-08T11:42:23;25.40;99.90
17172;DHT22;8701;50.150;8.756;2023-10-08T11:46:41;25.40;99.90
17172;DHT22;8701;50.150;8.756;2023-10-08T11:50:45;25.30;99.90
17172;DHT22;8701;50.150;8.756;2023-10-08T11:54:50;26.00;99.90
17172;DHT22;8701;50.150;8.756;2023-10-08T11:58:54;26.10;99.90
17172;DHT22;8701;50.150;8.756;2023-10-08T12:02:58;26.40;99.90
17172;DHT22;8701;50.150;8.756;2023-10-08T12:07:02;27.90;99.90
17172;DHT22;8701;50.150;8.756;2023-10-08T12:11:09;29.40;99.90
17172;DHT22;8701;50.150;8.756;2023-10-08T12:15:12;29.90;99.90
17172;DHT22;8701;50.150;8.756;2023-10-08T12:19:20;30.60;99.90
17172;DHT22;8701;50.150;8.756;2023-10-08T12:23:23;30.90;99.90
17172;DHT22;8701;50.150;8.756;2023-10-08T12:27:28;31.00;99.90
17172;DHT22;8701;50.150;8.756;2023-10-08T12:31:31;31.00;99.90
17172;DHT22;8701;50.150;8.756;2023-10-08T12:35:34;31.50;99.90
17172;DHT22;8701;50.150;8.756;2023-10-08T12:39:38;31.50;99.90
17172;DHT22;8701;50.150;8.756;2023-10-08T12:43:59;31.40;99.40
17172;DHT22;8701;50.150;8.756;2023-10-08T12:48:01;31.70;98.90
17172;DHT22;8701;50.150;8.756;2023-10-08T12:52:03;31.70;97.90
17172;DHT22;8701;50.150;8.756;2023-10-08T12:56:07;30.90;99.20
17172;DHT22;8701;50.150;8.756;2023-10-08T13:00:17;29.60;99.90
17172;DHT22;8701;50.150;8.756;2023-10-08T13:04:24;28.80;99.90
17172;DHT22;8701;50.150;8.756;2023-10-08T13:08:29;28.30;99.90
17172;DHT22;8701;50.150;8.756;2023-10-08T13:12:31;27.80;99.90
17172;DHT22;8701;50.150;8.756;2023-10-08T13:16:35;27.10;99.90
17172;DHT22;8701;50.150;8.756;2023-10-08T13:20:39;27.00;99.90
17172;DHT22;8701;50.150;8.756;2023-10-08T13:24:45;27.10;99.90
17172;DHT22;8701;50.150;8.756;2023-10-08T13:28:50;26.70;99.90
17172;DHT22;8701;50.150;8.756;2023-10-08T13:32:54;26.20;99.90
17172;DHT22;8701;50.150;8.756;2023-10-08T13:36:56;26.60;99.90
17172;DHT22;8701;50.150;8.756;2023-10-08T13:40:58;27.00;99.90
17172;DHT22;8701;50.150;8.756;2023-10-08T13:45:15;26.80;99.90
17172;DHT22;8701;50.150;8.756;2023-10-08T13:49:29;26.10;99.90
17172;DHT22;8701;50.150;8.756;2023-10-08T13:53:31;25.50;99.90
17172;DHT22;8701;50.150;8.756;2023-10-08T13:57:34;25.30;99.90
17172;DHT22;8701;50.150;8.756;2023-10-08T14:01:37;25.10;99.90
17172;DHT22;8701;50.150;8.756;2023-10-08T14:05:43;24.90;99.90
17172;DHT22;8701;50.150;8.756;2023-10-08T14:09:51;24.70;99.90
17172;DHT22;8701;50.150;8.756;2023-10-08T14:13:54;24.50;99.90
17172;DHT22;8701;50.150;8.756;2023-10-08T14:17:56;24.30;99.90
17172;DHT22;8701;50.150;8.756;2023-10-08T14:22:03;24.00;99.90
17172;DHT22;8701;50.150;8.756;2023-10-08T14:26:06;23.80;99.90
17172;DHT22;8701;50.150;8.756;2023-10-08T14:30:09;23.70;99.90
17172;DHT22;8701;50.150;8.756;2023-10-08T14:34:16;23.50;99.90
17172;DHT22;8701;50.150;8.756;2023-10-08T14:38:31;23.30;99.90
17172;DHT22;8701;50.150;8.756;2023-10-08T14:42:51;23.10;99.90
17172;DHT22;8701;50.150;8.756;2023-10-08T14:46:57;22.90;99.90
17172;DHT22;8701;50.150;8.756;2023-10-08T14:50:59;22.70;99.90
17172;DHT22;8701;50.150;8.756;2023-10-08T14:55:04;22.50;99.90
17172;DHT22;8701;50.150;8.756;2023-10-08T14:59:06;22.50;99.90
17172;DHT22;8701;50.150;8.756;2023-10-08T15:03:08;22.40;99.90
17172;DHT22;8701;50.150;8.756;2023-10-08T15:07:12;22.20;99.90
17172;DHT22;8701;50.150;8.756;2023-10-08T15:11:20;22.10;99.90
17172;DHT22;8701;50.150;8.756;2023-10-08T15:15:22;21.90;99.90
17172;DHT22;8701;50.150;8.756;2023-10-08T15:19:26;21.80;99.90
17172;DHT22;8701;50.150;8.756;2023-10-08T15:23:28;21.70;99.90
17172;DHT22;8701;50.150;8.756;2023-10-08T15:27:31;21.60;99.90
17172;DHT22;8701;50.150;8.756;2023-10-08T15:31:34;21.50;99.90
17172;DHT22;8701;50.150;8.756;2023-10-08T15:35:37;21.30;99.90
17172;DHT22;8701;50.150;8.756;2023-10-08T15:39:41;21.20;99.90
17172;DHT22;8701;50.150;8.756;2023-10-08T15:43:49;21.10;99.90
17172;DHT22;8701;50.150;8.756;2023-10-08T15:47:53;21.00;99.90
17172;DHT22;8701;50.150;8.756;2023-10-08T15:51:55;20.80;99.90
17172;DHT22;8701;50.150;8.756;2023-10-08T15:55:57;20.70;99.90
17172;DHT22;8701;50.150;8.756;2023-10-08T16:00:01;20.60;99.90
17172;DHT22;8701;50.150;8.756;2023-10-08T16:04:05;20.50;99.90
17172;DHT22;8701;50.150;8.756;2023-10-08T16:08:07;20.50;99.90
17172;DHT22;8701;50.150;8.756;2023-10-08T16:12:09;20.40;99.90
17172;DHT22;8701;50.150;8.756;2023-10-08T16:16:13;20.20;99.90
17172;DHT22;8701;50.150;8.756;2023-10-08T16:20:15;20.10;99.90
17172;DHT22;8701;50.150;8.756;2023-10-08T16:24:18;19.90;99.90
17172;DHT22;8701;50.150;8.756;2023-10-08T16:28:21;19.80;99.90
17172;DHT22;8701;50.150;8.756;2023-10-08T16:32:24;19.70;99.90
17172;DHT22;8701;50.150;8.756;2023-10-08T16:36:27;19.60;99.90
17172;DHT22;8701;50.150;8.756;2023-10-08T16:40:29;19.40;99.90
17172;DHT22;8701;50.150;8.756;2023-10-08T16:44:32;19.30;99.90
17172;DHT22;8701;50.150;8.756;2023-10-08T16:48:36;19.20;99.90
17172;DHT22;8701;50.150;8.756;2023-10-08T16:52:38;19.10;99.90
17172;DHT22;8701;50.150;8.756;2023-10-08T16:56:41;19.00;99.90
17172;DHT22;8701;50.150;8.756;2023-10-08T17:00:44;19.00;99.90
17172;DHT22;8701;50.150;8.756;2023-10-08T17:04:49;19.00;99.90
17172;DHT22;8701;50.150;8.756;2023-10-08T17:08:51;18.90;99.90
17172;DHT22;8701;50.150;8.756;2023-10-08T17:12:53;18.90;99.90
17172;DHT22;8701;50.150;8.756;2023-10-08T17:16:56;18.80;99.90
17172;DHT22;8701;50.150;8.756;2023-10-08T17:21:02;18.70;99.90
17172;DHT22;8701;50.150;8.756;2023-10-08T17:25:05;18.70;99.90
17172;DHT22;8701;50.150;8.756;2023-10-08T17:29:08;18.60;99.90
17172;DHT22;8701;50.150;8.756;2023-10-08T17:33:10;18.60;99.90
17172;DHT22;8701;50.150;8.756;2023-10-08T17:37:14;18.40;99.90
17172;DHT22;8701;50.150;8.756;2023-10-08T17:41:16;18.40;99.90
17172;DHT22;8701;50.150;8.756;2023-10-08T17:45:18;18.30;99.90
17172;DHT22;8701;50.150;8.756;2023-10-08T17:49:24;18.20;99.90
17172;DHT22;8701;50.150;8.756;2023-10-08T17:53:27;18.00;99.90
17172;DHT22;8701;50.150;8.756;2023-10-08T17:57:29;18.00;99.90
17172;DHT22;8701;50.150;8.756;2023-10-08T18:01:31;17.80;99.90
17172;DHT22;8701;50.150;8.756;2023-10-08T18:05:34;17.80;99.90
17172;DHT22;8701;50.150;8.756;2023-10-08T18:09:39;17.70;99.90
17172;DHT22;8701;50.150;8.756;2023-10-08T18:13:43;17.60;99.90
17172;DHT22;8701;50.150;8.756;2023-10-08T18:17:47;17.50;99.90
17172;DHT22;8701;50.150;8.756;2023-10-08T18:21:50;17.50;99.90
17172;DHT22;8701;50.150;8.756;2023-10-08T18:25:53;17.50;99.90
17172;DHT22;8701;50.150;8.756;2023-10-08T18:29:56;17.40;99.90
17172;DHT22;8701;50.150;8.756;2023-10-08T18:33:58;17.30;99.90
17172;DHT22;8701;50.150;8.756;2023-10-08T18:38:00;17.40;99.90
17172;DHT22;8701;50.150;8.756;2023-10-08T18:42:04;17.30;99.90
17172;DHT22;8701;50.150;8.756;2023-10-08T18:46:09;17.20;99.90
17172;DHT22;8701;50.150;8.756;2023-10-08T18:50:11;17.20;99.90
17172;DHT22;8701;50.150;8.756;2023-10-08T18:54:14;17.10;99.90
17172;DHT22;8701;50.150;8.756;2023-10-08T18:58:18;17.10;99.90
17172;DHT22;8701;50.150;8.756;2023-10-08T19:02:20;17.10;99.90
17172;DHT22;8701;50.150;8.756;2023-10-08T19:06:23;17.00;99.90
17172;DHT22;8701;50.150;8.756;2023-10-08T19:10:26;17.00;99.90
17172;DHT22;8701;50.150;8.756;2023-10-08T19:14:29;16.90;99.90
17172;DHT22;8701;50.150;8.756;2023-10-08T19:18:31;16.80;99.90
17172;DHT22;8701;50.150;8.756;2023-10-08T19:22:35;16.70;99.90
17172;DHT22;8701;50.150;8.756;2023-10-08T19:26:38;16.70;99.90
17172;DHT22;8701;50.150;8.756;2023-10-08T19:30:41;16.60;99.90
17172;DHT22;8701;50.150;8.756;2023-10-08T19:34:44;16.60;99.90
17172;DHT22;8701;50.150;8.756;2023-10-08T19:38:47;16.50;99.90
17172;DHT22;8701;50.150;8.756;2023-10-08T19:42:50;16.50;99.90
17172;DHT22;8701;50.150;8.756;2023-10-08T19:46:54;16.50;99.90
17172;DHT22;8701;50.150;8.756;2023-10-08T19:50:57;16.40;99.90
17172;DHT22;8701;50.150;8.756;2023-10-08T19:55:00;16.40;99.90
17172;DHT22;8701;50.150;8.756;2023-10-08T19:59:02;16.40;99.90
17172;DHT22;8701;50.150;8.756;2023-10-08T20:03:07;16.30;99.90
17172;DHT22;8701;50.150;8.756;2023-10-08T20:07:11;16.30;99.90
17172;DHT22;8701;50.150;8.756;2023-10-08T20:11:13;16.30;99.90
17172;DHT22;8701;50.150;8.756;2023-10-08T20:15:16;16.20;99.90
17172;DHT22;8701;50.150;8.756;2023-10-08T20:19:20;16.20;99.90
17172;DHT22;8701;50.150;8.756;2023-10-08T20:23:23;16.20;99.90
17172;DHT22;8701;50.150;8.756;2023-10-08T20:27:30;16.20;99.90
17172;DHT22;8701;50.150;8.756;2023-10-08T20:31:33;16.10;99.90
17172;DHT22;8701;50.150;8.756;2023-10-08T20:35:38;16.10;99.90
17172;DHT22;8701;50.150;8.756;2023-10-08T20:39:40;16.00;99.90
17172;DHT22;8701;50.150;8.756;2023-10-08T20:43:44;16.00;99.90
17172;DHT22;8701;50.150;8.756;2023-10-08T20:47:46;16.00;99.90
17172;DHT22;8701;50.150;8.756;2023-10-08T20:51:50;16.00;99.90
17172;DHT22;8701;50.150;8.756;2023-10-08T20:55:53;15.90;99.90
17172;DHT22;8701;50.150;8.756;2023-10-08T20:59:56;15.90;99.90
17172;DHT22;8701;50.150;8.756;2023-10-08T21:03:58;15.90;99.90
17172;DHT22;8701;50.150;8.756;2023-10-08T21:08:03;15.90;99.90
17172;DHT22;8701;50.150;8.756;2023-10-08T21:12:06;15.90;99.90
17172;DHT22;8701;50.150;8.756;2023-10-08T21:16:12;15.90;99.90
17172;DHT22;8701;50.150;8.756;2023-10-08T21:20:15;15.90;99.90
17172;DHT22;8701;50.150;8.756;2023-10-08T21:24:19;15.90;99.90
17172;DHT22;8701;50.150;8.756;2023-10-08T21:28:23;15.90;99.90
17172;DHT22;8701;50.150;8.756;2023-10-08T21:32:25;15.80;99.90
17172;DHT22;8701;50.150;8.756;2023-10-08T21:36:28;15.80;99.90
17172;DHT22;8701;50.150;8.756;2023-10-08T21:40:31;15.80;99.90
17172;DHT22;8701;50.150;8.756;2023-10-08T21:44:33;15.70;99.90
17172;DHT22;8701;50.150;8.756;2023-10-08T21:48:36;15.70;99.90
17172;DHT22;8701;50.150;8.756;2023-10-08T21:52:38;15.60;99.90
17172;DHT22;8701;50.150;8.756;2023-10-08T21:56:42;15.50;99.90
17172;DHT22;8701;50.150;8.756;2023-10-08T22:00:44;15.40;99.90
17172;DHT22;8701;50.150;8.756;2023-10-08T22:04:47;15.40;99.90
17172;DHT22;8701;50.150;8.756;2023-10-08T22:08:50;15.40;99.90
17172;DHT22;8701;50.150;8.756;2023-10-08T22:12:54;15.30;99.90
17172;DHT22;8701;50.150;8.756;2023-10-08T22:16:59;15.30;99.90
17172;DHT22;8701;50.150;8.756;2023-10-08T22:21:02;15.30;99.90
17172;DHT22;8701;50.150;8.756;2023-10-08T22:25:14;15.30;99.90
17172;DHT22;8701;50.150;8.756;2023-10-08T22:29:17;15.20;99.90
17172;DHT22;8701;50.150;8.756;2023-10-08T22:33:21;15.30;99.90
17172;DHT22;8701;50.150;8.756;2023-10-08T22:37:26;15.20;99.90
17172;DHT22;8701;50.150;8.756;2023-10-08T22:41:54;15.20;99.90
17172;DHT22;8701;50.150;8.756;2023-10-08T22:45:57;15.20;99.90
17172;DHT22;8701;50.150;8.756;2023-10-08T22:50:03;15.10;99.90
17172;DHT22;8701;50.150;8.756;2023-10-08T22:54:18;15.10;99.90
17172;DHT22;8701;50.150;8.756;2023-10-08T22:58:21;15.00;99.90
17172;DHT22;8701;50.150;8.756;2023-10-08T23:02:26;15.00;99.90
17172;DHT22;8701;50.150;8.756;2023-10-08T23:06:29;15.10;99.90
17172;DHT22;8701;50.150;8.756;2023-10-08T23:10:32;15.10;99.90
17172;DHT22;8701;50.150;8.756;2023-10-08T23:14:36;15.10;99.90
17172;DHT22;8701;50.150;8.756;2023-10-08T23:18:39;15.00;99.90
17172;DHT22;8701;50.150;8.756;2023-10-08T23:22:41;15.00;99.90
17172;DHT22;8701;50.150;8.756;2023-10-08T23:26:45;15.10;99.90
17172;DHT22;8701;50.150;8.756;2023-10-08T23:30:47;15.00;99.90
17172;DHT22;8701;50.150;8.756;2023-10-08T23:34:51;15.00;99.90
17172;DHT22;8701;50.150;8.756;2023-10-08T23:39:01;15.00;99.90
17172;DHT22;8701;50.150;8.756;2023-10-08T23:43:17;15.00;99.90
17172;DHT22;8701;50.150;8.756;2023-10-08T23:47:21;15.00;99.90
17172;DHT22;8701;50.150;8.756;2023-10-08T23:51:29;15.00;99.90
17172;DHT22;8701;50.150;8.756;2023-10-08T23:55:33;15.00;99.90
17172;DHT22;8701;50.150;8.756;2023-10-08T23:59:56;15.00;99.90
